sensor_id;sensor_type;location;lat;lon;timestamp;temperature;humidity
21108;DHT22;10712;52.944;9.098;2022-09-27T00:01:08;11.20;94.30
21108;DHT22;10712;52.944;9.098;2022-09-27T00:03:36;11.20;94.30
21108;DHT22;10712;52.944;9.098;2022-09-27T00:06:19;11.20;94.30
21108;DHT22;10712;52.944;9.098;2022-09-27T00:08:48;11.20;94.30
21108;DHT22;10712;52.944;9.098;2022-09-27T00:13:49;11.20;94.30
21108;DHT22;10712;52.944;9.098;2022-09-27T00:16:16;11.20;94.30
21108;DHT22;10712;52.944;9.098;2022-09-27T00:18:41;11.20;94.30
21108;DHT22;10712;52.944;9.098;2022-09-27T00:21:12;11.20;94.30
21108;DHT22;10712;52.944;9.098;2022-09-27T00:23:38;11.20;94.30
21108;DHT22;10712;52.944;9.098;2022-09-27T00:26:05;11.20;94.30
21108;DHT22;10712;52.944;9.098;2022-09-27T00:28:32;11.20;94.30
21108;DHT22;10712;52.944;9.098;2022-09-27T00:30:59;11.20;94.30
21108;DHT22;10712;52.944;9.098;2022-09-27T00:33:26;11.20;94.30
21108;DHT22;10712;52.944;9.098;2022-09-27T00:35:52;11.20;94.30
21108;DHT22;10712;52.944;9.098;2022-09-27T00:38:19;11.20;94.30
21108;DHT22;10712;52.944;9.098;2022-09-27T00:40:45;11.20;94.30
21108;DHT22;10712;52.944;9.098;2022-09-27T00:43:18;11.20;94.30
21108;DHT22;10712;52.944;9.098;2022-09-27T00:45:58;11.10;94.30
21108;DHT22;10712;52.944;9.098;2022-09-27T00:48:30;11.20;94.30
21108;DHT22;10712;52.944;9.098;2022-09-27T00:51:02;11.20;94.30
21108;DHT22;10712;52.944;9.098;2022-09-27T00:53:44;11.20;94.30
21108;DHT22;10712;52.944;9.098;2022-09-27T00:56:21;11.20;94.30
21108;DHT22;10712;52.944;9.098;2022-09-27T00:58:56;11.20;94.30
21108;DHT22;10712;52.944;9.098;2022-09-27T01:01:28;11.20;94.30
21108;DHT22;10712;52.944;9.098;2022-09-27T01:04:06;11.20;94.30
21108;DHT22;10712;52.944;9.098;2022-09-27T01:06:37;11.20;94.30
21108;DHT22;10712;52.944;9.098;2022-09-27T01:09:07;11.20;94.30
21108;DHT22;10712;52.944;9.098;2022-09-27T01:11:50;11.20;94.30
21108;DHT22;10712;52.944;9.098;2022-09-27T01:26:29;11.10;94.30
21108;DHT22;10712;52.944;9.098;2022-09-27T01:38:30;11.20;94.30
21108;DHT22;10712;52.944;9.098;2022-09-27T01:41:16;11.20;94.30
21108;DHT22;10712;52.944;9.098;2022-09-27T01:44:29;11.20;94.30
21108;DHT22;10712;52.944;9.098;2022-09-27T01:47:13;11.20;94.30
21108;DHT22;10712;52.944;9.098;2022-09-27T01:52:52;11.20;94.30
21108;DHT22;10712;52.944;9.098;2022-09-27T01:55:35;11.30;94.30
21108;DHT22;10712;52.944;9.098;2022-09-27T01:58:33;11.30;94.30
21108;DHT22;10712;52.944;9.098;2022-09-27T02:01:02;11.30;94.30
21108;DHT22;10712;52.944;9.098;2022-09-27T02:03:36;11.30;94.30
21108;DHT22;10712;52.944;9.098;2022-09-27T02:06:45;11.30;94.30
21108;DHT22;10712;52.944;9.098;2022-09-27T02:09:41;11.30;94.30
21108;DHT22;10712;52.944;9.098;2022-09-27T02:12:26;11.30;94.30
21108;DHT22;10712;52.944;9.098;2022-09-27T02:15:08;11.30;94.30
21108;DHT22;10712;52.944;9.098;2022-09-27T02:17:59;11.30;94.30
21108;DHT22;10712;52.944;9.098;2022-09-27T02:20:38;11.30;94.30
21108;DHT22;10712;52.944;9.098;2022-09-27T02:23:22;11.30;94.30
21108;DHT22;10712;52.944;9.098;2022-09-27T02:28:58;11.30;94.30
21108;DHT22;10712;52.944;9.098;2022-09-27T02:31:34;11.30;94.30
21108;DHT22;10712;52.944;9.098;2022-09-27T02:34:13;11.40;94.30
21108;DHT22;10712;52.944;9.098;2022-09-27T02:36:45;11.40;94.30
21108;DHT22;10712;52.944;9.098;2022-09-27T02:39:11;11.30;94.30
21108;DHT22;10712;52.944;9.098;2022-09-27T02:41:37;11.40;94.30
21108;DHT22;10712;52.944;9.098;2022-09-27T02:44:07;11.30;94.30
21108;DHT22;10712;52.944;9.098;2022-09-27T02:53:56;11.30;94.30
21108;DHT22;10712;52.944;9.098;2022-09-27T02:56:38;11.30;94.30
21108;DHT22;10712;52.944;9.098;2022-09-27T03:03:07;11.30;94.30
21108;DHT22;10712;52.944;9.098;2022-09-27T03:06:09;11.30;94.30
21108;DHT22;10712;52.944;9.098;2022-09-27T03:08:38;11.30;94.30
21108;DHT22;10712;52.944;9.098;2022-09-27T03:11:05;11.30;94.30
21108;DHT22;10712;52.944;9.098;2022-09-27T03:13:31;11.30;94.30
21108;DHT22;10712;52.944;9.098;2022-09-27T03:15:59;11.30;94.30
21108;DHT22;10712;52.944;9.098;2022-09-27T03:18:51;11.20;94.30
21108;DHT22;10712;52.944;9.098;2022-09-27T03:21:37;11.20;94.30
21108;DHT22;10712;52.944;9.098;2022-09-27T03:24:03;11.20;94.30
21108;DHT22;10712;52.944;9.098;2022-09-27T03:26:30;11.20;94.30
21108;DHT22;10712;52.944;9.098;2022-09-27T03:28:55;11.20;94.30
21108;DHT22;10712;52.944;9.098;2022-09-27T03:31:21;11.20;94.30
21108;DHT22;10712;52.944;9.098;2022-09-27T03:34:07;11.20;94.30
21108;DHT22;10712;52.944;9.098;2022-09-27T03:36:33;11.20;94.30
21108;DHT22;10712;52.944;9.098;2022-09-27T03:39:00;11.20;94.30
21108;DHT22;10712;52.944;9.098;2022-09-27T03:41:26;11.10;94.30
21108;DHT22;10712;52.944;9.098;2022-09-27T03:43:52;11.10;94.30
21108;DHT22;10712;52.944;9.098;2022-09-27T03:46:19;11.10;94.30
21108;DHT22;10712;52.944;9.098;2022-09-27T03:48:45;11.10;94.30
21108;DHT22;10712;52.944;9.098;2022-09-27T03:51:10;11.10;94.30
21108;DHT22;10712;52.944;9.098;2022-09-27T03:53:37;11.10;94.30
21108;DHT22;10712;52.944;9.098;2022-09-27T03:56:03;11.10;94.30
21108;DHT22;10712;52.944;9.098;2022-09-27T03:58:29;11.10;94.30
21108;DHT22;10712;52.944;9.098;2022-09-27T04:00:55;11.00;94.30
21108;DHT22;10712;52.944;9.098;2022-09-27T04:03:22;11.00;94.30
21108;DHT22;10712;52.944;9.098;2022-09-27T04:06:08;11.00;94.30
21108;DHT22;10712;52.944;9.098;2022-09-27T04:08:38;11.00;94.30
21108;DHT22;10712;52.944;9.098;2022-09-27T04:11:05;11.00;94.30
21108;DHT22;10712;52.944;9.098;2022-09-27T04:13:31;11.00;94.30
21108;DHT22;10712;52.944;9.098;2022-09-27T04:15:58;11.00;94.30
21108;DHT22;10712;52.944;9.098;2022-09-27T04:18:43;10.90;94.30
21108;DHT22;10712;52.944;9.098;2022-09-27T04:21:44;10.90;94.30
21108;DHT22;10712;52.944;9.098;2022-09-27T04:24:12;10.90;94.30
21108;DHT22;10712;52.944;9.098;2022-09-27T04:26:42;10.90;94.30
21108;DHT22;10712;52.944;9.098;2022-09-27T04:29:11;10.90;94.30
21108;DHT22;10712;52.944;9.098;2022-09-27T04:31:44;10.80;94.30
21108;DHT22;10712;52.944;9.098;2022-09-27T04:34:28;10.80;94.30
21108;DHT22;10712;52.944;9.098;2022-09-27T04:37:19;10.80;94.30
21108;DHT22;10712;52.944;9.098;2022-09-27T04:39:47;10.80;94.30
21108;DHT22;10712;52.944;9.098;2022-09-27T04:42:14;10.80;94.30
21108;DHT22;10712;52.944;9.098;2022-09-27T04:44:40;10.80;94.30
21108;DHT22;10712;52.944;9.098;2022-09-27T04:47:06;10.80;94.30
21108;DHT22;10712;52.944;9.098;2022-09-27T04:49:33;10.80;94.30
21108;DHT22;10712;52.944;9.098;2022-09-27T04:51:59;10.80;94.30
21108;DHT22;10712;52.944;9.098;2022-09-27T04:54:25;10.80;94.30
21108;DHT22;10712;52.944;9.098;2022-09-27T04:57:04;10.90;94.30
21108;DHT22;10712;52.944;9.098;2022-09-27T04:59:30;10.90;94.30
21108;DHT22;10712;52.944;9.098;2022-09-27T05:01:56;10.90;94.30
21108;DHT22;10712;52.944;9.098;2022-09-27T05:04:43;10.80;94.30
21108;DHT22;10712;52.944;9.098;2022-09-27T05:07:10;10.90;94.30
21108;DHT22;10712;52.944;9.098;2022-09-27T05:09:41;10.90;94.30
21108;DHT22;10712;52.944;9.098;2022-09-27T05:12:07;10.90;94.30
21108;DHT22;10712;52.944;9.098;2022-09-27T05:15:06;10.90;94.30
21108;DHT22;10712;52.944;9.098;2022-09-27T05:18:05;10.90;94.30
21108;DHT22;10712;52.944;9.098;2022-09-27T05:20:51;10.90;94.30
21108;DHT22;10712;52.944;9.098;2022-09-27T05:23:24;10.90;94.30
21108;DHT22;10712;52.944;9.098;2022-09-27T05:25:50;10.90;94.30
21108;DHT22;10712;52.944;9.098;2022-09-27T05:28:21;10.90;94.30
21108;DHT22;10712;52.944;9.098;2022-09-27T05:30:49;10.90;94.30
21108;DHT22;10712;52.944;9.098;2022-09-27T05:33:19;10.90;94.30
21108;DHT22;10712;52.944;9.098;2022-09-27T05:35:55;10.90;94.30
21108;DHT22;10712;52.944;9.098;2022-09-27T05:38:25;10.80;94.30
21108;DHT22;10712;52.944;9.098;2022-09-27T05:40:55;10.80;94.30
21108;DHT22;10712;52.944;9.098;2022-09-27T05:43:23;10.80;94.30
21108;DHT22;10712;52.944;9.098;2022-09-27T05:45:50;10.80;94.30
21108;DHT22;10712;52.944;9.098;2022-09-27T05:48:18;10.80;94.30
21108;DHT22;10712;52.944;9.098;2022-09-27T05:51:04;10.80;94.30
21108;DHT22;10712;52.944;9.098;2022-09-27T05:53:33;10.80;94.30
21108;DHT22;10712;52.944;9.098;2022-09-27T05:56:04;10.80;94.30
21108;DHT22;10712;52.944;9.098;2022-09-27T05:58:54;10.80;94.30
21108;DHT22;10712;52.944;9.098;2022-09-27T06:01:20;10.80;94.30
21108;DHT22;10712;52.944;9.098;2022-09-27T06:04:06;10.80;94.30
21108;DHT22;10712;52.944;9.098;2022-09-27T06:06:51;10.80;94.30
21108;DHT22;10712;52.944;9.098;2022-09-27T06:09:17;10.80;94.30
21108;DHT22;10712;52.944;9.098;2022-09-27T06:11:45;10.80;94.30
21108;DHT22;10712;52.944;9.098;2022-09-27T06:14:14;10.80;94.30
21108;DHT22;10712;52.944;9.098;2022-09-27T06:16:52;10.80;94.30
21108;DHT22;10712;52.944;9.098;2022-09-27T06:19:22;10.80;94.30
21108;DHT22;10712;52.944;9.098;2022-09-27T06:21:50;10.80;94.30
21108;DHT22;10712;52.944;9.098;2022-09-27T06:24:16;10.80;94.10
21108;DHT22;10712;52.944;9.098;2022-09-27T06:26:43;10.80;94.10
21108;DHT22;10712;52.944;9.098;2022-09-27T06:29:34;10.70;94.20
21108;DHT22;10712;52.944;9.098;2022-09-27T06:32:02;10.70;94.30
21108;DHT22;10712;52.944;9.098;2022-09-27T06:34:50;10.70;94.30
21108;DHT22;10712;52.944;9.098;2022-09-27T06:37:16;10.80;94.30
21108;DHT22;10712;52.944;9.098;2022-09-27T06:39:42;10.80;94.30
21108;DHT22;10712;52.944;9.098;2022-09-27T06:42:31;10.80;94.30
21108;DHT22;10712;52.944;9.098;2022-09-27T06:45:07;10.80;94.30
21108;DHT22;10712;52.944;9.098;2022-09-27T06:48:03;10.80;94.30
21108;DHT22;10712;52.944;9.098;2022-09-27T06:50:39;10.80;94.30
21108;DHT22;10712;52.944;9.098;2022-09-27T06:53:10;10.80;94.30
21108;DHT22;10712;52.944;9.098;2022-09-27T06:55:39;10.80;94.30
21108;DHT22;10712;52.944;9.098;2022-09-27T06:58:06;10.80;94.30
21108;DHT22;10712;52.944;9.098;2022-09-27T07:01:32;10.80;94.30
21108;DHT22;10712;52.944;9.098;2022-09-27T07:04:24;10.80;94.10
21108;DHT22;10712;52.944;9.098;2022-09-27T07:06:59;10.80;94.10
21108;DHT22;10712;52.944;9.098;2022-09-27T07:09:29;10.80;94.20
21108;DHT22;10712;52.944;9.098;2022-09-27T07:11:55;10.80;94.20
21108;DHT22;10712;52.944;9.098;2022-09-27T07:14:21;10.80;94.20
21108;DHT22;10712;52.944;9.098;2022-09-27T07:16:48;10.80;94.20
21108;DHT22;10712;52.944;9.098;2022-09-27T07:19:14;10.90;94.20
21108;DHT22;10712;52.944;9.098;2022-09-27T07:21:40;10.90;94.20
21108;DHT22;10712;52.944;9.098;2022-09-27T07:24:06;10.90;94.30
21108;DHT22;10712;52.944;9.098;2022-09-27T07:26:32;10.90;94.30
21108;DHT22;10712;52.944;9.098;2022-09-27T07:28:58;11.00;94.30
21108;DHT22;10712;52.944;9.098;2022-09-27T07:31:27;11.00;94.30
21108;DHT22;10712;52.944;9.098;2022-09-27T07:33:54;11.10;94.30
21108;DHT22;10712;52.944;9.098;2022-09-27T07:36:20;11.10;94.00
21108;DHT22;10712;52.944;9.098;2022-09-27T07:38:46;11.10;94.10
21108;DHT22;10712;52.944;9.098;2022-09-27T07:41:14;11.10;94.10
21108;DHT22;10712;52.944;9.098;2022-09-27T07:43:41;11.10;93.90
21108;DHT22;10712;52.944;9.098;2022-09-27T07:46:09;11.10;93.60
21108;DHT22;10712;52.944;9.098;2022-09-27T07:48:50;11.10;93.50
21108;DHT22;10712;52.944;9.098;2022-09-27T07:51:39;11.20;93.70
21108;DHT22;10712;52.944;9.098;2022-09-27T07:54:10;11.20;93.60
21108;DHT22;10712;52.944;9.098;2022-09-27T07:56:47;11.20;93.10
21108;DHT22;10712;52.944;9.098;2022-09-27T07:59:15;11.20;93.10
21108;DHT22;10712;52.944;9.098;2022-09-27T08:01:41;11.20;93.20
21108;DHT22;10712;52.944;9.098;2022-09-27T08:04:07;11.10;93.10
21108;DHT22;10712;52.944;9.098;2022-09-27T08:06:33;11.10;93.30
21108;DHT22;10712;52.944;9.098;2022-09-27T08:09:00;11.20;93.30
21108;DHT22;10712;52.944;9.098;2022-09-27T08:11:29;11.20;93.20
21108;DHT22;10712;52.944;9.098;2022-09-27T08:13:55;11.20;93.30
21108;DHT22;10712;52.944;9.098;2022-09-27T08:16:27;11.20;92.90
21108;DHT22;10712;52.944;9.098;2022-09-27T08:19:11;11.20;92.60
21108;DHT22;10712;52.944;9.098;2022-09-27T08:21:52;11.20;92.70
21108;DHT22;10712;52.944;9.098;2022-09-27T08:24:25;11.20;92.90
21108;DHT22;10712;52.944;9.098;2022-09-27T08:27:01;11.20;92.80
21108;DHT22;10712;52.944;9.098;2022-09-27T08:29:44;11.20;92.60
21108;DHT22;10712;52.944;9.098;2022-09-27T08:32:11;11.20;92.90
21108;DHT22;10712;52.944;9.098;2022-09-27T08:34:37;11.20;93.10
21108;DHT22;10712;52.944;9.098;2022-09-27T08:37:03;11.20;93.00
21108;DHT22;10712;52.944;9.098;2022-09-27T08:39:30;11.20;93.00
21108;DHT22;10712;52.944;9.098;2022-09-27T08:45:15;11.30;93.00
21108;DHT22;10712;52.944;9.098;2022-09-27T08:48:01;11.30;92.80
21108;DHT22;10712;52.944;9.098;2022-09-27T08:50:40;11.30;92.90
21108;DHT22;10712;52.944;9.098;2022-09-27T08:55:56;11.30;93.00
21108;DHT22;10712;52.944;9.098;2022-09-27T08:58:29;11.30;93.10
21108;DHT22;10712;52.944;9.098;2022-09-27T09:01:05;11.40;93.00
21108;DHT22;10712;52.944;9.098;2022-09-27T09:03:54;11.40;92.80
21108;DHT22;10712;52.944;9.098;2022-09-27T09:06:25;11.40;92.40
21108;DHT22;10712;52.944;9.098;2022-09-27T09:26:33;11.60;91.80
21108;DHT22;10712;52.944;9.098;2022-09-27T09:32:33;11.60;91.60
21108;DHT22;10712;52.944;9.098;2022-09-27T09:35:11;11.60;91.40
21108;DHT22;10712;52.944;9.098;2022-09-27T09:37:55;11.60;91.20
21108;DHT22;10712;52.944;9.098;2022-09-27T09:44:17;11.50;90.30
21108;DHT22;10712;52.944;9.098;2022-09-27T09:46:50;11.50;90.60
21108;DHT22;10712;52.944;9.098;2022-09-27T09:49:27;11.50;90.60
21108;DHT22;10712;52.944;9.098;2022-09-27T09:52:11;11.50;90.90
21108;DHT22;10712;52.944;9.098;2022-09-27T09:54:50;11.50;90.90
21108;DHT22;10712;52.944;9.098;2022-09-27T09:57:48;11.50;90.40
21108;DHT22;10712;52.944;9.098;2022-09-27T10:00:26;11.50;90.50
21108;DHT22;10712;52.944;9.098;2022-09-27T10:02:54;11.40;90.30
21108;DHT22;10712;52.944;9.098;2022-09-27T10:05:25;11.50;90.30
21108;DHT22;10712;52.944;9.098;2022-09-27T10:08:20;11.50;90.60
21108;DHT22;10712;52.944;9.098;2022-09-27T10:10:59;11.50;90.10
21108;DHT22;10712;52.944;9.098;2022-09-27T10:13:44;11.40;90.60
21108;DHT22;10712;52.944;9.098;2022-09-27T10:16:13;11.40;90.50
21108;DHT22;10712;52.944;9.098;2022-09-27T10:18:43;11.30;90.90
21108;DHT22;10712;52.944;9.098;2022-09-27T10:21:23;11.40;91.20
21108;DHT22;10712;52.944;9.098;2022-09-27T10:24:10;11.30;91.10
21108;DHT22;10712;52.944;9.098;2022-09-27T10:26:50;11.30;91.30
21108;DHT22;10712;52.944;9.098;2022-09-27T10:29:31;11.30;91.70
21108;DHT22;10712;52.944;9.098;2022-09-27T10:32:01;11.40;91.90
21108;DHT22;10712;52.944;9.098;2022-09-27T10:34:39;11.40;91.60
21108;DHT22;10712;52.944;9.098;2022-09-27T10:37:21;11.40;91.30
21108;DHT22;10712;52.944;9.098;2022-09-27T10:39:57;11.40;91.20
21108;DHT22;10712;52.944;9.098;2022-09-27T10:48:00;11.40;91.90
21108;DHT22;10712;52.944;9.098;2022-09-27T10:50:58;11.40;91.90
21108;DHT22;10712;52.944;9.098;2022-09-27T10:53:45;11.50;92.00
21108;DHT22;10712;52.944;9.098;2022-09-27T10:56:27;11.50;91.50
21108;DHT22;10712;52.944;9.098;2022-09-27T10:58:56;11.40;91.60
21108;DHT22;10712;52.944;9.098;2022-09-27T11:01:26;11.40;91.50
21108;DHT22;10712;52.944;9.098;2022-09-27T11:05:11;11.50;91.70
21108;DHT22;10712;52.944;9.098;2022-09-27T11:07:51;11.50;91.70
21108;DHT22;10712;52.944;9.098;2022-09-27T11:10:28;11.50;91.70
21108;DHT22;10712;52.944;9.098;2022-09-27T11:13:18;11.40;91.50
21108;DHT22;10712;52.944;9.098;2022-09-27T11:30:15;11.40;90.60
21108;DHT22;10712;52.944;9.098;2022-09-27T11:38:47;11.50;91.20
21108;DHT22;10712;52.944;9.098;2022-09-27T11:44:44;11.50;90.90
21108;DHT22;10712;52.944;9.098;2022-09-27T11:47:37;11.50;90.80
21108;DHT22;10712;52.944;9.098;2022-09-27T11:50:25;11.40;90.90
21108;DHT22;10712;52.944;9.098;2022-09-27T12:16:25;11.40;91.10
21108;DHT22;10712;52.944;9.098;2022-09-27T12:18:54;11.50;91.20
21108;DHT22;10712;52.944;9.098;2022-09-27T12:21:49;11.50;91.20
21108;DHT22;10712;52.944;9.098;2022-09-27T12:24:21;11.40;91.10
21108;DHT22;10712;52.944;9.098;2022-09-27T12:27:09;11.40;91.00
21108;DHT22;10712;52.944;9.098;2022-09-27T12:29:41;11.50;91.40
21108;DHT22;10712;52.944;9.098;2022-09-27T12:32:21;11.50;91.80
21108;DHT22;10712;52.944;9.098;2022-09-27T12:35:18;11.50;91.80
21108;DHT22;10712;52.944;9.098;2022-09-27T12:38:05;11.50;91.80
21108;DHT22;10712;52.944;9.098;2022-09-27T12:40:39;11.50;91.90
21108;DHT22;10712;52.944;9.098;2022-09-27T12:43:23;11.50;91.90
21108;DHT22;10712;52.944;9.098;2022-09-27T12:52:09;11.60;92.20
21108;DHT22;10712;52.944;9.098;2022-09-27T13:00:57;11.70;92.10
21108;DHT22;10712;52.944;9.098;2022-09-27T13:12:17;11.70;92.20
21108;DHT22;10712;52.944;9.098;2022-09-27T13:15:03;11.70;92.40
21108;DHT22;10712;52.944;9.098;2022-09-27T13:25:56;11.70;92.30
21108;DHT22;10712;52.944;9.098;2022-09-27T13:32:28;11.70;92.50
21108;DHT22;10712;52.944;9.098;2022-09-27T13:34:47;11.80;92.40
21108;DHT22;10712;52.944;9.098;2022-09-27T13:37:49;11.80;92.40
21108;DHT22;10712;52.944;9.098;2022-09-27T13:40:34;11.80;92.40
21108;DHT22;10712;52.944;9.098;2022-09-27T13:45:57;11.80;92.30
21108;DHT22;10712;52.944;9.098;2022-09-27T13:51:35;11.90;92.60
21108;DHT22;10712;52.944;9.098;2022-09-27T13:57:00;11.80;92.60
21108;DHT22;10712;52.944;9.098;2022-09-27T13:59:41;11.80;91.80
21108;DHT22;10712;52.944;9.098;2022-09-27T14:02:19;11.50;88.30
21108;DHT22;10712;52.944;9.098;2022-09-27T14:04:53;11.40;89.20
21108;DHT22;10712;52.944;9.098;2022-09-27T14:07:31;11.30;89.60
21108;DHT22;10712;52.944;9.098;2022-09-27T14:10:04;11.20;89.90
21108;DHT22;10712;52.944;9.098;2022-09-27T14:12:39;11.20;89.70
21108;DHT22;10712;52.944;9.098;2022-09-27T14:15:26;11.10;90.20
21108;DHT22;10712;52.944;9.098;2022-09-27T14:17:57;11.10;90.50
21108;DHT22;10712;52.944;9.098;2022-09-27T14:20:38;11.10;90.70
21108;DHT22;10712;52.944;9.098;2022-09-27T14:23:21;11.10;90.20
21108;DHT22;10712;52.944;9.098;2022-09-27T14:25:51;11.00;90.00
21108;DHT22;10712;52.944;9.098;2022-09-27T14:28:27;10.90;90.00
21108;DHT22;10712;52.944;9.098;2022-09-27T14:31:25;10.90;90.30
21108;DHT22;10712;52.944;9.098;2022-09-27T14:34:17;10.90;90.40
21108;DHT22;10712;52.944;9.098;2022-09-27T14:36:47;10.90;90.50
21108;DHT22;10712;52.944;9.098;2022-09-27T14:39:40;10.90;90.50
21108;DHT22;10712;52.944;9.098;2022-09-27T14:42:27;10.80;90.60
21108;DHT22;10712;52.944;9.098;2022-09-27T14:44:57;10.80;90.90
21108;DHT22;10712;52.944;9.098;2022-09-27T14:47:27;10.90;91.10
21108;DHT22;10712;52.944;9.098;2022-09-27T14:50:06;10.90;91.20
21108;DHT22;10712;52.944;9.098;2022-09-27T14:52:42;10.90;91.40
21108;DHT22;10712;52.944;9.098;2022-09-27T14:55:18;10.90;91.50
21108;DHT22;10712;52.944;9.098;2022-09-27T14:57:49;10.90;91.50
21108;DHT22;10712;52.944;9.098;2022-09-27T15:00:23;10.90;91.50
21108;DHT22;10712;52.944;9.098;2022-09-27T15:03:03;10.90;91.70
21108;DHT22;10712;52.944;9.098;2022-09-27T15:05:34;10.80;91.90
21108;DHT22;10712;52.944;9.098;2022-09-27T15:08:04;10.80;92.00
21108;DHT22;10712;52.944;9.098;2022-09-27T15:10:34;10.80;92.10
21108;DHT22;10712;52.944;9.098;2022-09-27T15:13:03;10.80;92.20
21108;DHT22;10712;52.944;9.098;2022-09-27T15:15:35;10.80;92.30
21108;DHT22;10712;52.944;9.098;2022-09-27T15:18:28;10.80;92.30
21108;DHT22;10712;52.944;9.098;2022-09-27T15:21:08;10.80;92.20
21108;DHT22;10712;52.944;9.098;2022-09-27T15:23:42;10.80;92.20
21108;DHT22;10712;52.944;9.098;2022-09-27T15:28:52;10.80;92.30
21108;DHT22;10712;52.944;9.098;2022-09-27T15:31:28;10.80;92.30
21108;DHT22;10712;52.944;9.098;2022-09-27T15:33:57;10.80;92.20
21108;DHT22;10712;52.944;9.098;2022-09-27T15:36:56;10.80;92.40
21108;DHT22;10712;52.944;9.098;2022-09-27T15:39:31;10.80;92.50
21108;DHT22;10712;52.944;9.098;2022-09-27T15:42:12;10.80;92.60
21108;DHT22;10712;52.944;9.098;2022-09-27T15:47:41;10.70;92.90
21108;DHT22;10712;52.944;9.098;2022-09-27T15:52:42;10.70;93.00
21108;DHT22;10712;52.944;9.098;2022-09-27T15:55:12;10.70;93.20
21108;DHT22;10712;52.944;9.098;2022-09-27T15:57:40;10.80;93.30
21108;DHT22;10712;52.944;9.098;2022-09-27T16:00:12;10.80;93.40
21108;DHT22;10712;52.944;9.098;2022-09-27T16:02:43;10.80;93.40
21108;DHT22;10712;52.944;9.098;2022-09-27T16:05:09;10.90;93.50
21108;DHT22;10712;52.944;9.098;2022-09-27T16:07:36;10.90;93.40
21108;DHT22;10712;52.944;9.098;2022-09-27T16:10:12;11.00;93.60
21108;DHT22;10712;52.944;9.098;2022-09-27T16:12:41;11.00;93.60
21108;DHT22;10712;52.944;9.098;2022-09-27T16:15:10;11.10;93.60
21108;DHT22;10712;52.944;9.098;2022-09-27T16:17:37;11.10;93.60
21108;DHT22;10712;52.944;9.098;2022-09-27T16:20:04;11.10;93.70
21108;DHT22;10712;52.944;9.098;2022-09-27T16:22:30;11.10;93.80
21108;DHT22;10712;52.944;9.098;2022-09-27T16:24:56;11.20;93.80
21108;DHT22;10712;52.944;9.098;2022-09-27T16:27:25;11.20;93.60
21108;DHT22;10712;52.944;9.098;2022-09-27T16:29:54;11.20;93.70
21108;DHT22;10712;52.944;9.098;2022-09-27T16:32:22;11.20;93.60
21108;DHT22;10712;52.944;9.098;2022-09-27T16:34:48;11.20;93.70
21108;DHT22;10712;52.944;9.098;2022-09-27T16:37:14;11.20;93.70
21108;DHT22;10712;52.944;9.098;2022-09-27T16:39:40;11.20;93.70
21108;DHT22;10712;52.944;9.098;2022-09-27T16:42:06;11.20;93.80
21108;DHT22;10712;52.944;9.098;2022-09-27T16:44:33;11.20;93.80
21108;DHT22;10712;52.944;9.098;2022-09-27T16:47:01;11.20;93.70
21108;DHT22;10712;52.944;9.098;2022-09-27T16:49:28;11.20;93.70
21108;DHT22;10712;52.944;9.098;2022-09-27T16:52:12;11.20;93.70
21108;DHT22;10712;52.944;9.098;2022-09-27T16:54:41;11.20;93.80
21108;DHT22;10712;52.944;9.098;2022-09-27T16:57:07;11.20;93.80
21108;DHT22;10712;52.944;9.098;2022-09-27T16:59:33;11.20;93.80
21108;DHT22;10712;52.944;9.098;2022-09-27T17:01:58;11.20;93.80
21108;DHT22;10712;52.944;9.098;2022-09-27T17:04:26;11.20;93.80
21108;DHT22;10712;52.944;9.098;2022-09-27T17:06:55;11.20;93.90
21108;DHT22;10712;52.944;9.098;2022-09-27T17:09:22;11.20;93.90
21108;DHT22;10712;52.944;9.098;2022-09-27T17:11:49;11.20;93.80
21108;DHT22;10712;52.944;9.098;2022-09-27T17:14:15;11.10;93.80
21108;DHT22;10712;52.944;9.098;2022-09-27T17:16:42;11.10;93.70
21108;DHT22;10712;52.944;9.098;2022-09-27T17:19:10;11.10;93.80
21108;DHT22;10712;52.944;9.098;2022-09-27T17:21:36;11.10;93.70
21108;DHT22;10712;52.944;9.098;2022-09-27T17:24:02;11.10;93.80
21108;DHT22;10712;52.944;9.098;2022-09-27T17:26:29;11.00;93.50
21108;DHT22;10712;52.944;9.098;2022-09-27T17:28:57;11.00;92.70
21108;DHT22;10712;52.944;9.098;2022-09-27T17:31:26;10.90;92.70
21108;DHT22;10712;52.944;9.098;2022-09-27T17:33:55;10.90;92.50
21108;DHT22;10712;52.944;9.098;2022-09-27T17:36:25;10.90;91.90
21108;DHT22;10712;52.944;9.098;2022-09-27T17:38:53;10.80;92.10
21108;DHT22;10712;52.944;9.098;2022-09-27T17:41:21;10.80;92.10
21108;DHT22;10712;52.944;9.098;2022-09-27T17:43:56;10.80;92.30
21108;DHT22;10712;52.944;9.098;2022-09-27T17:46:31;10.80;92.30
21108;DHT22;10712;52.944;9.098;2022-09-27T17:48:59;10.80;92.20
21108;DHT22;10712;52.944;9.098;2022-09-27T17:51:47;10.80;92.10
21108;DHT22;10712;52.944;9.098;2022-09-27T17:54:15;10.80;92.00
21108;DHT22;10712;52.944;9.098;2022-09-27T17:56:43;10.80;91.80
21108;DHT22;10712;52.944;9.098;2022-09-27T17:59:11;10.80;92.00
21108;DHT22;10712;52.944;9.098;2022-09-27T18:01:41;10.80;91.90
21108;DHT22;10712;52.944;9.098;2022-09-27T18:04:10;10.80;92.10
21108;DHT22;10712;52.944;9.098;2022-09-27T18:06:42;10.80;92.20
21108;DHT22;10712;52.944;9.098;2022-09-27T18:09:12;10.80;92.30
21108;DHT22;10712;52.944;9.098;2022-09-27T18:11:41;10.70;92.40
21108;DHT22;10712;52.944;9.098;2022-09-27T18:14:07;10.70;92.50
21108;DHT22;10712;52.944;9.098;2022-09-27T18:16:37;10.70;92.60
21108;DHT22;10712;52.944;9.098;2022-09-27T18:19:10;10.70;92.50
21108;DHT22;10712;52.944;9.098;2022-09-27T18:21:38;10.70;92.40
21108;DHT22;10712;52.944;9.098;2022-09-27T18:24:05;10.60;92.30
21108;DHT22;10712;52.944;9.098;2022-09-27T18:26:32;10.60;92.40
21108;DHT22;10712;52.944;9.098;2022-09-27T18:29:11;10.60;92.30
21108;DHT22;10712;52.944;9.098;2022-09-27T18:31:39;10.50;92.40
21108;DHT22;10712;52.944;9.098;2022-09-27T18:34:07;10.50;92.20
21108;DHT22;10712;52.944;9.098;2022-09-27T18:36:33;10.50;92.30
21108;DHT22;10712;52.944;9.098;2022-09-27T18:39:03;10.40;92.40
21108;DHT22;10712;52.944;9.098;2022-09-27T18:41:32;10.40;92.30
21108;DHT22;10712;52.944;9.098;2022-09-27T18:44:00;10.40;92.20
21108;DHT22;10712;52.944;9.098;2022-09-27T18:46:29;10.30;92.20
21108;DHT22;10712;52.944;9.098;2022-09-27T18:48:59;10.30;92.30
21108;DHT22;10712;52.944;9.098;2022-09-27T18:51:29;10.20;92.20
21108;DHT22;10712;52.944;9.098;2022-09-27T18:53:57;10.10;91.10
21108;DHT22;10712;52.944;9.098;2022-09-27T18:56:26;10.00;91.20
21108;DHT22;10712;52.944;9.098;2022-09-27T18:58:53;9.90;91.50
21108;DHT22;10712;52.944;9.098;2022-09-27T19:01:20;9.80;91.80
21108;DHT22;10712;52.944;9.098;2022-09-27T19:03:47;9.80;92.00
21108;DHT22;10712;52.944;9.098;2022-09-27T19:06:21;9.80;92.20
21108;DHT22;10712;52.944;9.098;2022-09-27T19:08:54;9.80;92.30